Kilbourn, Iowa
Current Conditions -  °F | °C
As of 6:35 AM on Monday 24 Nov 2014 (Local Time) from KFFL Reporting Station
Unknown Precip Unknown Precip  
Wind Chill: 19°   Ceiling: 1500
Heat Index: 32°   Visibility: NA
Dew Point: 27°   Wind: 24mph
Humidity: 80%   Direction: 290°WNW
Pressure: 29.38"   Gusts: 31mph
Location:  40.8549°N, 91.9505°W
Report Text: KFFL 241235Z AUTO 29021G27KT -UP OVC015 M00/M03 A2938 RMK AO2
Loading
Personal Weather Stations






























Interactive Weather Map New forecast layout! Learn more

10-Day Weather Forecast

Advertisements
Track Severe Weather on mobile